KIMM

Immokalee Regional Airport

Immokalee, Florida, USA
METAR KIMM 210355Z AUTO 00000KT 10SM 24/23 A3013 RMK A01
Observed Flight Rules
Aug-21 @ 03:55 UTC (16 minutes ago)
Visibility
10 miles
Temperatures Readings
Current 24°C / 75°F
Dewpoint 23°C / 73°F
Humidity 94%
Altimeter 30.13" Hg
Pressure 1020 hPa
Elevation 12
METAR KIMM 210355Z AUTO 00000KT 10SM 24/23 A3013 RMK A01
Observed Flight Rules
Aug-21 @ 03:55 UTC
(16 minutes ago)
Temperature Dewpoint
24°C / 75°F 23°C / 73°F
Humidity Altimeter Pressure
94% 30.13" Hg 1020 hPa